Time;durP1;ratioP1;P1;durP2;ratioP2;P2;SDS_P1;SDS_P2;PMS_P1;PMS_P2;Temp;Humidity;BMP_temperature;BMP_pressure;BME280_temperature;BME280_humidity;BME280_pressure;Samples;Min_cycle;Max_cycle;Signal;HPM_P1;HPM_P2
2021/08/18 00:00:45;;;;;;;8.65;5.38;;;14.40;99.90;;;;;;5033048;28;20108;-44
2021/08/18 00:03:11;;;;;;;10.63;6.15;;;14.30;99.90;;;;;;5032977;28;20477;-43
2021/08/18 00:05:38;;;;;;;8.57;5.18;;;14.40;99.90;;;;;;5032569;28;20050;-44
2021/08/18 00:08:06;;;;;;;8.68;5.40;;;14.30;99.90;;;;;;5032879;28;20026;-45
2021/08/18 00:10:32;;;;;;;8.15;5.75;;;14.40;99.90;;;;;;5032862;28;20460;-43
2021/08/18 00:12:58;;;;;;;7.13;5.05;;;14.40;99.90;;;;;;5031967;28;20035;-43
2021/08/18 00:15:24;;;;;;;6.55;4.63;;;14.50;99.90;;;;;;5032773;28;20052;-45
2021/08/18 00:17:50;;;;;;;7.32;5.25;;;14.50;99.90;;;;;;5032756;28;20032;-44
2021/08/18 00:20:16;;;;;;;9.60;5.55;;;14.50;99.90;;;;;;5032623;28;20029;-43
2021/08/18 00:22:42;;;;;;;7.78;4.75;;;14.60;99.90;;;;;;5032789;28;20032;-45
2021/08/18 00:25:08;;;;;;;8.40;5.05;;;14.60;99.90;;;;;;5032547;28;20152;-44
2021/08/18 00:27:33;;;;;;;8.02;5.50;;;14.60;99.90;;;;;;5031810;28;20439;-47
2021/08/18 00:29:59;;;;;;;8.02;5.85;;;14.70;99.90;;;;;;5032633;28;20120;-45
2021/08/18 00:32:25;;;;;;;8.43;5.28;;;14.70;99.90;;;;;;5032624;28;20025;-46
2021/08/18 00:34:50;;;;;;;11.00;5.68;;;14.70;99.90;;;;;;5032670;28;20064;-46
2021/08/18 00:37:16;;;;;;;10.15;5.90;;;14.70;99.90;;;;;;5032532;28;20029;-44
2021/08/18 00:39:42;;;;;;;5.93;5.00;;;14.70;99.90;;;;;;5032487;28;20076;-45
2021/08/18 00:42:07;;;;;;;7.70;5.10;;;14.70;99.90;;;;;;5031507;28;20492;-48
2021/08/18 00:44:34;;;;;;;6.35;4.68;;;14.70;99.90;;;;;;5032527;28;20052;-46
2021/08/18 00:47:01;;;;;;;8.48;4.85;;;14.70;99.90;;;;;;5032254;28;20075;-46
2021/08/18 00:49:27;;;;;;;7.90;4.95;;;14.80;99.90;;;;;;5032376;28;20108;-46
2021/08/18 00:51:55;;;;;;;6.43;4.80;;;14.80;99.90;;;;;;5032482;28;20393;-48
2021/08/18 00:54:20;;;;;;;7.97;5.80;;;14.80;99.90;;;;;;5033174;28;20026;-44
2021/08/18 00:56:47;;;;;;;8.25;5.57;;;14.80;99.90;;;;;;5035519;28;20032;-43
2021/08/18 00:59:13;;;;;;;7.38;5.03;;;14.90;99.90;;;;;;5036213;28;20037;-46
2021/08/18 01:01:40;;;;;;;6.82;5.68;;;14.90;99.90;;;;;;5036353;28;20036;-48
2021/08/18 01:04:06;;;;;;;8.65;5.47;;;14.90;99.90;;;;;;5034890;28;20088;-43
2021/08/18 01:06:40;;;;;;;8.88;5.50;;;14.90;99.90;;;;;;5036243;28;20033;-43
2021/08/18 01:09:10;;;;;;;7.22;6.00;;;14.90;99.90;;;;;;5036161;28;20029;-47
2021/08/18 01:11:37;;;;;;;7.05;5.15;;;14.90;99.90;;;;;;5035274;28;20044;-43
2021/08/18 01:14:03;;;;;;;7.70;4.78;;;14.90;99.90;;;;;;5035977;28;20052;-45
2021/08/18 01:16:33;;;;;;;7.45;5.38;;;14.80;99.90;;;;;;5036077;28;20503;-43
2021/08/18 01:18:59;;;;;;;8.23;5.68;;;14.80;99.90;;;;;;5036021;28;20033;-45
2021/08/18 01:21:24;;;;;;;4.75;3.88;;;14.90;99.90;;;;;;5035801;28;20109;-46
2021/08/18 01:23:50;;;;;;;6.45;4.53;;;14.90;99.90;;;;;;5035939;28;20539;-44
2021/08/18 01:26:15;;;;;;;7.43;4.80;;;14.90;99.90;;;;;;5034799;28;20037;-44
2021/08/18 01:28:41;;;;;;;9.88;5.80;;;14.80;99.90;;;;;;5035662;28;20033;-46
2021/08/18 01:31:07;;;;;;;8.30;5.78;;;14.70;99.90;;;;;;5035730;28;20034;-46
2021/08/18 01:33:32;;;;;;;8.40;5.18;;;14.60;99.90;;;;;;5035664;28;20022;-44
2021/08/18 01:35:58;;;;;;;7.28;4.97;;;14.40;99.90;;;;;;5035749;28;20101;-43
2021/08/18 01:38:23;;;;;;;8.20;5.75;;;14.40;99.90;;;;;;5035484;28;20576;-46
2021/08/18 01:40:52;;;;;;;10.23;6.15;;;14.30;99.90;;;;;;5034606;28;20552;-44
2021/08/18 01:43:22;;;;;;;9.30;6.15;;;14.20;99.90;;;;;;5035332;28;20034;-43
2021/08/18 01:45:48;;;;;;;7.45;5.88;;;14.20;99.90;;;;;;5035538;28;20034;-46
2021/08/18 01:48:17;;;;;;;9.95;5.45;;;14.30;99.90;;;;;;5035451;28;20531;-44
2021/08/18 01:50:47;;;;;;;9.07;6.63;;;14.30;99.90;;;;;;5035509;28;20029;-46
2021/08/18 01:53:19;;;;;;;7.05;5.55;;;14.40;99.90;;;;;;5035326;28;20053;-44
2021/08/18 01:55:45;;;;;;;7.57;6.20;;;14.50;99.90;;;;;;5034122;28;20116;-45
2021/08/18 01:58:10;;;;;;;8.63;6.05;;;14.50;99.90;;;;;;5035337;28;20105;-44
2021/08/18 02:00:36;;;;;;;8.77;6.30;;;14.60;99.90;;;;;;5035287;28;20044;-44
2021/08/18 02:03:02;;;;;;;9.32;6.13;;;14.60;99.90;;;;;;5035350;28;20057;-45
2021/08/18 02:05:27;;;;;;;9.43;4.80;;;14.60;99.90;;;;;;5034120;28;20053;-45
2021/08/18 02:07:54;;;;;;;9.52;6.10;;;14.60;99.90;;;;;;5034624;28;20072;-44
2021/08/18 02:10:21;;;;;;;7.97;6.63;;;14.70;99.90;;;;;;5034901;28;20112;-44
2021/08/18 02:12:47;;;;;;;9.45;6.28;;;14.70;99.90;;;;;;5034168;28;20044;-43
2021/08/18 02:15:16;;;;;;;8.13;6.10;;;14.70;99.90;;;;;;5034965;28;20029;-46
2021/08/18 02:17:43;;;;;;;6.63;5.38;;;14.70;99.90;;;;;;5034923;28;20521;-48
2021/08/18 02:20:11;;;;;;;7.57;4.50;;;14.70;99.90;;;;;;5034896;28;20026;-45
2021/08/18 02:22:37;;;;;;;7.97;5.63;;;14.70;99.90;;;;;;5034770;28;20084;-46
2021/08/18 02:25:04;;;;;;;8.40;6.05;;;14.70;99.90;;;;;;5033420;28;20033;-46
2021/08/18 02:27:30;;;;;;;8.73;5.28;;;14.80;99.90;;;;;;5033754;28;20469;-44
2021/08/18 02:29:55;;;;;;;11.95;7.00;;;14.80;99.90;;;;;;5034592;28;20036;-44
2021/08/18 02:32:21;;;;;;;7.68;5.38;;;14.80;99.90;;;;;;5034562;28;20033;-44
2021/08/18 02:34:46;;;;;;;7.55;5.57;;;14.70;99.90;;;;;;5034903;28;20037;-44
2021/08/18 02:37:12;;;;;;;9.70;5.80;;;14.70;99.90;;;;;;5034554;28;20069;-45
2021/08/18 02:39:37;;;;;;;8.93;6.05;;;14.70;99.90;;;;;;5034353;28;20354;-45
2021/08/18 02:42:03;;;;;;;7.43;5.55;;;14.70;99.90;;;;;;5033554;28;20033;-46
2021/08/18 02:44:29;;;;;;;6.07;4.90;;;14.70;99.90;;;;;;5035628;28;20072;-44
2021/08/18 02:46:54;;;;;;;7.22;5.70;;;14.60;99.90;;;;;;5034294;28;20037;-43
2021/08/18 02:49:20;;;;;;;5.90;5.00;;;14.70;99.90;;;;;;5034280;28;20053;-43
2021/08/18 02:51:46;;;;;;;6.60;5.38;;;14.70;99.90;;;;;;5034306;28;20101;-44
2021/08/18 02:54:12;;;;;;;7.03;5.57;;;14.70;99.90;;;;;;5034119;28;20034;-46
2021/08/18 02:56:38;;;;;;;7.07;5.88;;;14.60;99.90;;;;;;5033279;28;20033;-43
2021/08/18 02:59:03;;;;;;;6.72;5.03;;;14.70;99.90;;;;;;5034149;28;20092;-44
2021/08/18 03:01:29;;;;;;;7.05;5.45;;;14.70;99.90;;;;;;5034121;28;20435;-45
2021/08/18 03:03:54;;;;;;;7.30;5.60;;;14.70;99.90;;;;;;5034002;28;20084;-44
2021/08/18 03:06:20;;;;;;;9.90;6.70;;;14.70;99.90;;;;;;5033924;28;20033;-44
2021/08/18 03:08:45;;;;;;;7.63;6.00;;;14.70;99.90;;;;;;5032486;28;20021;-44
2021/08/18 03:11:11;;;;;;;4.80;4.20;;;14.60;99.90;;;;;;5033161;28;20041;-43
2021/08/18 03:13:36;;;;;;;7.35;5.72;;;14.60;99.90;;;;;;5033884;28;20029;-44
2021/08/18 03:16:02;;;;;;;6.20;4.82;;;14.60;99.90;;;;;;5033896;28;20042;-44
2021/08/18 03:18:29;;;;;;;6.75;5.32;;;14.60;99.90;;;;;;5032895;28;20469;-48
2021/08/18 03:20:55;;;;;;;6.00;5.03;;;14.50;99.90;;;;;;5013486;28;20057;-44
2021/08/18 03:23:20;;;;;;;7.13;5.78;;;14.50;99.90;;;;;;5013379;28;20034;-43
2021/08/18 03:25:46;;;;;;;7.53;5.55;;;14.50;99.90;;;;;;5012832;28;20037;-44
2021/08/18 03:28:11;;;;;;;5.82;4.85;;;14.50;99.90;;;;;;5013690;28;20038;-43
2021/08/18 03:30:37;;;;;;;7.03;5.50;;;14.50;99.90;;;;;;5013849;28;20477;-46
2021/08/18 03:33:02;;;;;;;6.45;5.57;;;14.50;99.90;;;;;;5013908;28;20359;-44
2021/08/18 03:35:28;;;;;;;7.53;6.00;;;14.50;99.90;;;;;;5012417;28;20032;-47
2021/08/18 03:37:53;;;;;;;7.60;5.95;;;14.50;99.90;;;;;;5013594;28;20145;-45
2021/08/18 03:40:19;;;;;;;6.03;5.43;;;14.60;99.90;;;;;;5013663;28;20022;-43
2021/08/18 03:42:44;;;;;;;7.00;5.70;;;14.60;99.90;;;;;;5011421;28;20446;-43
2021/08/18 03:45:11;;;;;;;7.88;5.68;;;14.50;99.90;;;;;;5013520;28;20030;-43
2021/08/18 03:47:37;;;;;;;7.32;5.18;;;14.50;99.90;;;;;;4996002;28;20033;-44
2021/08/18 03:50:04;;;;;;;11.65;6.40;;;14.50;99.90;;;;;;5013624;28;20026;-43
2021/08/18 03:52:29;;;;;;;8.30;5.15;;;14.50;99.90;;;;;;5014919;28;20034;-44
2021/08/18 03:54:55;;;;;;;7.72;5.97;;;14.50;99.90;;;;;;5011499;28;20465;-44
2021/08/18 03:57:20;;;;;;;6.72;5.80;;;14.50;99.90;;;;;;5031212;28;20036;-46
2021/08/18 03:59:46;;;;;;;8.38;5.88;;;14.50;99.90;;;;;;5031583;28;20491;-44
2021/08/18 04:02:11;;;;;;;9.65;5.93;;;14.50;99.90;;;;;;5032917;28;20032;-44
2021/08/18 04:04:37;;;;;;;8.63;6.55;;;14.50;99.90;;;;;;5032559;28;20493;-43
2021/08/18 04:07:03;;;;;;;6.93;5.60;;;14.50;99.90;;;;;;5033858;28;20044;-45
2021/08/18 04:09:29;;;;;;;6.40;4.95;;;14.50;99.90;;;;;;5032725;28;20049;-46
2021/08/18 04:11:54;;;;;;;5.68;4.97;;;14.50;99.90;;;;;;5030587;28;20053;-46
2021/08/18 04:14:20;;;;;;;8.60;5.10;;;14.50;99.90;;;;;;5034013;28;20033;-44
2021/08/18 04:16:45;;;;;;;8.60;6.75;;;14.50;99.90;;;;;;5032725;28;20032;-44
2021/08/18 04:19:11;;;;;;;6.18;5.55;;;14.50;99.90;;;;;;5032751;28;20029;-44
2021/08/18 04:21:36;;;;;;;9.40;6.78;;;14.50;99.90;;;;;;5032618;28;20056;-45
2021/08/18 04:24:02;;;;;;;11.23;6.57;;;14.50;99.90;;;;;;5031469;28;20029;-43
2021/08/18 04:26:28;;;;;;;7.85;6.00;;;14.50;99.90;;;;;;5031694;28;20039;-43
2021/08/18 04:28:54;;;;;;;9.35;6.15;;;14.50;99.90;;;;;;5032100;28;20021;-44
2021/08/18 04:31:20;;;;;;;7.50;5.13;;;14.50;99.90;;;;;;5032720;28;20033;-46
2021/08/18 04:33:46;;;;;;;8.60;5.70;;;14.50;99.90;;;;;;5032636;28;20029;-44
2021/08/18 04:36:11;;;;;;;7.93;5.60;;;14.50;99.90;;;;;;5031758;28;20124;-44
2021/08/18 04:38:37;;;;;;;7.18;5.65;;;14.50;99.90;;;;;;5032396;28;20053;-44
2021/08/18 04:41:02;;;;;;;8.05;5.78;;;14.50;99.90;;;;;;5031463;28;20029;-44
2021/08/18 04:43:28;;;;;;;7.65;5.80;;;14.50;99.90;;;;;;5032210;28;20030;-43
2021/08/18 04:45:53;;;;;;;6.72;5.28;;;14.50;99.90;;;;;;5031911;28;20025;-43
2021/08/18 04:48:19;;;;;;;7.20;5.57;;;14.50;99.90;;;;;;5032338;28;20040;-44
2021/08/18 04:50:45;;;;;;;8.55;5.20;;;14.50;99.90;;;;;;5032273;28;20036;-46
2021/08/18 04:53:12;;;;;;;7.22;5.57;;;14.50;99.90;;;;;;5031680;28;20017;-47
2021/08/18 04:55:39;;;;;;;7.95;5.15;;;14.60;99.90;;;;;;5031745;28;20034;-46
2021/08/18 04:58:04;;;;;;;4.90;4.40;;;14.60;99.90;;;;;;5032200;28;20029;-47
2021/08/18 05:00:30;;;;;;;9.60;5.10;;;14.60;99.90;;;;;;5032946;28;20071;-43
2021/08/18 05:02:55;;;;;;;10.32;5.35;;;14.60;99.90;;;;;;5032098;28;20030;-43
2021/08/18 05:05:21;;;;;;;6.05;4.53;;;14.60;99.90;;;;;;5031774;28;20084;-47
2021/08/18 05:07:46;;;;;;;6.28;4.47;;;14.70;99.90;;;;;;5031946;28;20049;-43
2021/08/18 05:10:12;;;;;;;7.22;5.03;;;14.70;99.90;;;;;;5032153;28;20049;-47
2021/08/18 05:12:38;;;;;;;7.28;4.93;;;14.70;99.90;;;;;;5028253;28;20554;-44
2021/08/18 05:15:05;;;;;;;7.40;5.75;;;14.80;99.90;;;;;;5032266;28;20067;-45
2021/08/18 05:17:30;;;;;;;5.95;4.47;;;14.80;99.90;;;;;;5031529;28;20033;-44
2021/08/18 05:19:56;;;;;;;6.82;5.35;;;14.80;99.90;;;;;;5031468;28;20159;-46
2021/08/18 05:22:22;;;;;;;5.65;4.00;;;14.90;99.90;;;;;;5031532;28;20040;-44
2021/08/18 05:24:47;;;;;;;5.72;4.03;;;14.90;99.90;;;;;;5031614;28;20022;-45
2021/08/18 05:27:13;;;;;;;5.55;4.10;;;14.90;99.90;;;;;;5031026;28;20392;-44
2021/08/18 05:29:39;;;;;;;7.35;4.75;;;14.90;99.90;;;;;;5031789;28;20464;-45
2021/08/18 05:32:05;;;;;;;4.50;4.07;;;15.00;99.90;;;;;;5032128;28;20060;-44
2021/08/18 05:34:30;;;;;;;10.02;4.93;;;15.10;99.90;;;;;;5031846;28;20428;-44
2021/08/18 05:36:56;;;;;;;7.18;5.25;;;15.10;99.90;;;;;;5031432;28;20033;-44
2021/08/18 05:39:22;;;;;;;7.03;5.13;;;15.20;99.90;;;;;;5031745;28;20108;-43
2021/08/18 05:41:47;;;;;;;8.00;4.68;;;15.20;99.90;;;;;;5032661;28;20036;-44
2021/08/18 05:44:13;;;;;;;6.53;4.43;;;15.30;99.90;;;;;;5035243;28;20033;-44
2021/08/18 05:46:39;;;;;;;10.07;4.15;;;15.30;99.90;;;;;;5035191;28;20033;-43
2021/08/18 05:49:04;;;;;;;4.43;3.67;;;15.40;99.90;;;;;;5035279;28;20021;-44
2021/08/18 05:51:30;;;;;;;7.78;4.10;;;15.40;99.90;;;;;;5034008;28;20026;-43
2021/08/18 05:53:55;;;;;;;4.95;3.85;;;15.50;99.90;;;;;;5025427;28;20018;-43
2021/08/18 05:56:21;;;;;;;6.45;3.70;;;15.50;99.90;;;;;;5027434;28;20030;-45
2021/08/18 05:58:46;;;;;;;5.10;3.67;;;15.50;99.90;;;;;;5034808;28;20037;-43
2021/08/18 06:01:12;;;;;;;4.47;3.78;;;15.50;99.90;;;;;;5035201;28;20037;-43
2021/08/18 06:03:38;;;;;;;4.75;3.38;;;15.50;99.90;;;;;;5034496;28;20511;-44
2021/08/18 06:06:04;;;;;;;6.18;4.55;;;15.50;99.90;;;;;;4977863;28;20108;-46
2021/08/18 06:08:29;;;;;;;5.60;4.35;;;15.50;99.90;;;;;;5034424;28;20037;-48
2021/08/18 06:10:55;;;;;;;11.88;5.88;;;15.40;99.90;;;;;;5034202;28;20030;-44
2021/08/18 06:13:22;;;;;;;6.18;4.50;;;15.40;99.90;;;;;;5034842;28;20030;-46
2021/08/18 06:15:47;;;;;;;6.10;4.57;;;15.50;99.90;;;;;;5033071;28;20029;-46
2021/08/18 06:18:13;;;;;;;8.27;4.45;;;15.60;99.90;;;;;;5034672;28;20060;-47
2021/08/18 06:20:38;;;;;;;7.82;3.80;;;15.70;99.90;;;;;;5034621;28;20068;-48
2021/08/18 06:23:04;;;;;;;6.18;3.65;;;15.70;99.90;;;;;;5034207;28;20056;-44
2021/08/18 06:25:29;;;;;;;6.03;3.70;;;15.80;99.90;;;;;;5032707;28;20026;-49
2021/08/18 06:27:55;;;;;;;5.47;3.20;;;15.80;99.90;;;;;;5031318;28;20034;-46
2021/08/18 06:30:21;;;;;;;6.43;3.55;;;15.90;99.90;;;;;;5032707;28;20109;-44
2021/08/18 06:32:46;;;;;;;7.05;4.30;;;15.90;99.90;;;;;;5033165;28;20116;-46
2021/08/18 06:35:12;;;;;;;6.05;3.90;;;16.00;99.90;;;;;;5032960;28;20071;-46
2021/08/18 06:37:39;;;;;;;5.68;3.40;;;16.00;99.90;;;;;;5032724;28;20026;-44
2021/08/18 06:40:09;;;;;;;5.35;3.03;;;16.10;99.90;;;;;;5032652;28;20018;-46
2021/08/18 06:42:37;;;;;;;6.32;4.30;;;16.30;99.90;;;;;;5031715;28;20013;-45
2021/08/18 06:45:03;;;;;;;4.40;3.65;;;16.40;99.90;;;;;;5013327;28;20018;-47
2021/08/18 06:47:29;;;;;;;4.22;2.88;;;16.50;99.90;;;;;;5027536;28;20358;-44
2021/08/18 06:49:54;;;;;;;5.68;4.25;;;16.70;99.90;;;;;;5032319;28;20033;-46
2021/08/18 06:52:20;;;;;;;5.43;4.13;;;16.80;99.90;;;;;;5031827;28;20322;-45
2021/08/18 06:54:45;;;;;;;4.97;3.28;;;16.90;99.90;;;;;;5032589;28;20041;-46
2021/08/18 06:57:11;;;;;;;4.00;3.35;;;17.20;99.90;;;;;;5031264;28;20083;-44
2021/08/18 06:59:36;;;;;;;4.25;3.33;;;17.70;99.90;;;;;;5032528;28;20029;-46
2021/08/18 07:02:02;;;;;;;3.85;3.05;;;18.00;99.90;;;;;;5031888;28;20115;-46
2021/08/18 07:04:27;;;;;;;10.80;4.85;;;18.30;99.90;;;;;;5032070;28;20053;-46
2021/08/18 07:06:52;;;;;;;5.15;3.65;;;18.40;99.90;;;;;;5032342;28;20045;-47
2021/08/18 07:09:18;;;;;;;5.75;3.85;;;18.60;99.90;;;;;;5032239;28;20029;-48
2021/08/18 07:11:43;;;;;;;3.72;3.20;;;18.70;99.90;;;;;;5031267;28;20048;-47
2021/08/18 07:14:09;;;;;;;4.57;3.33;;;19.00;99.90;;;;;;5031233;28;20097;-47
2021/08/18 07:16:35;;;;;;;5.63;3.40;;;19.30;99.90;;;;;;5031695;28;20037;-46
2021/08/18 07:19:02;;;;;;;5.22;4.32;;;19.60;99.90;;;;;;5031759;28;20067;-49
2021/08/18 07:21:28;;;;;;;5.53;3.17;;;20.10;99.90;;;;;;5031376;28;20030;-44
2021/08/18 07:23:55;;;;;;;4.22;3.05;;;20.70;99.90;;;;;;5032104;28;20099;-46
2021/08/18 07:26:24;;;;;;;5.07;3.50;;;20.70;98.80;;;;;;5030465;28;20469;-46
2021/08/18 07:28:50;;;;;;;4.18;3.05;;;20.60;98.00;;;;;;5032153;28;20092;-46
2021/08/18 07:31:16;;;;;;;4.78;3.53;;;21.40;94.90;;;;;;5032284;28;20457;-45
2021/08/18 07:33:41;;;;;;;4.38;3.53;;;22.60;90.80;;;;;;5031249;28;20022;-44
2021/08/18 07:36:07;;;;;;;3.78;2.92;;;23.50;86.70;;;;;;5030034;28;20025;-47
2021/08/18 07:38:32;;;;;;;3.10;2.58;;;24.60;82.10;;;;;;5031511;28;20120;-49
2021/08/18 07:40:58;;;;;;;4.15;2.50;;;24.90;80.30;;;;;;5029308;28;20044;-48
2021/08/18 07:43:23;;;;;;;3.75;2.80;;;25.90;75.80;;;;;;5031853;28;20052;-47
2021/08/18 07:45:49;;;;;;;2.63;2.20;;;27.20;64.40;;;;;;5031837;28;20421;-48
2021/08/18 07:48:14;;;;;;;3.60;2.28;;;28.30;61.80;;;;;;5031125;28;20033;-47
2021/08/18 07:50:40;;;;;;;3.20;2.40;;;28.90;61.00;;;;;;5031443;28;20029;-49
2021/08/18 07:53:06;;;;;;;2.63;2.17;;;29.90;54.60;;;;;;5032747;28;20029;-48
2021/08/18 07:55:31;;;;;;;5.63;3.00;;;30.40;53.70;;;;;;5031527;28;20072;-48
2021/08/18 07:57:57;;;;;;;3.47;2.72;;;29.10;49.60;;;;;;5030701;28;20044;-47
2021/08/18 08:00:22;;;;;;;4.05;2.63;;;28.20;50.60;;;;;;5030262;28;20022;-46
2021/08/18 08:02:48;;;;;;;3.60;2.90;;;27.10;52.70;;;;;;5030151;28;20026;-48
2021/08/18 08:05:15;;;;;;;4.05;2.72;;;25.70;53.20;;;;;;5030698;28;20056;-47
2021/08/18 08:07:41;;;;;;;3.92;2.55;;;24.60;57.70;;;;;;5031643;28;20025;-44
2021/08/18 08:10:08;;;;;;;3.60;2.60;;;23.70;58.90;;;;;;5031319;28;20034;-44
2021/08/18 08:12:34;;;;;;;2.67;2.08;;;22.80;61.40;;;;;;5028372;28;20104;-46
2021/08/18 08:15:00;;;;;;;3.47;2.70;;;22.10;64.60;;;;;;5031439;28;20041;-50
2021/08/18 08:17:26;;;;;;;3.33;2.40;;;21.40;65.70;;;;;;5031577;28;20051;-43
2021/08/18 08:19:52;;;;;;;4.03;2.25;;;20.90;69.10;;;;;;5031540;28;20026;-44
2021/08/18 08:22:18;;;;;;;2.65;2.28;;;20.40;72.20;;;;;;5031430;28;20069;-43
2021/08/18 08:24:43;;;;;;;2.28;1.95;;;20.00;74.70;;;;;;5030540;28;20030;-46
2021/08/18 08:27:09;;;;;;;3.75;2.50;;;19.80;76.90;;;;;;5030384;28;20026;-44
2021/08/18 08:29:35;;;;;;;3.70;2.47;;;19.60;78.50;;;;;;5031526;28;20473;-45
2021/08/18 08:32:00;;;;;;;3.47;2.10;;;19.50;79.60;;;;;;5031212;28;20022;-45
2021/08/18 08:34:26;;;;;;;4.75;2.53;;;19.40;80.30;;;;;;5031292;28;20111;-45
2021/08/18 08:36:52;;;;;;;4.47;2.60;;;19.50;81.00;;;;;;5031246;28;20104;-45
2021/08/18 08:39:17;;;;;;;3.42;2.00;;;19.50;80.40;;;;;;5031340;28;20041;-44
2021/08/18 08:41:44;;;;;;;3.10;2.10;;;20.20;77.90;;;;;;5030400;28;20095;-45
2021/08/18 08:44:24;;;;;;;2.75;2.10;;;20.90;74.90;;;;;;5031141;28;20021;-47
2021/08/18 08:46:52;;;;;;;3.10;1.95;;;22.00;68.50;;;;;;5030977;28;20441;-44
2021/08/18 08:49:20;;;;;;;2.63;2.20;;;22.40;68.00;;;;;;5031150;28;20025;-43
2021/08/18 08:51:48;;;;;;;4.68;2.55;;;22.50;66.40;;;;;;5031284;28;20026;-46
2021/08/18 08:54:14;;;;;;;6.60;2.05;;;22.40;64.80;;;;;;5031051;28;20037;-46
2021/08/18 08:56:40;;;;;;;3.60;1.92;;;22.10;64.40;;;;;;5030178;28;20057;-43
2021/08/18 08:59:06;;;;;;;3.00;2.17;;;21.90;65.30;;;;;;5030914;28;20060;-45
2021/08/18 09:02:06;;;;;;;2.33;1.70;;;22.40;64.60;;;;;;5031209;28;20025;-44
2021/08/18 09:04:40;;;;;;;2.25;1.73;;;23.20;58.90;;;;;;5030950;28;20553;-46
2021/08/18 09:07:10;;;;;;;2.70;1.90;;;24.20;54.70;;;;;;5030827;28;20021;-46
2021/08/18 09:09:37;;;;;;;3.60;2.05;;;24.30;56.20;;;;;;5030818;28;20461;-47
2021/08/18 09:12:14;;;;;;;2.75;1.92;;;24.20;56.30;;;;;;5029155;28;20018;-44
2021/08/18 09:14:41;;;;;;;5.32;1.90;;;24.10;53.20;;;;;;5030997;28;20389;-48
2021/08/18 09:17:36;;;;;;;2.97;1.92;;;24.20;55.20;;;;;;5034482;28;20059;-48
2021/08/18 09:20:11;;;;;;;2.78;2.17;;;24.30;51.00;;;;;;5034606;28;20026;-44
2021/08/18 09:22:39;;;;;;;2.00;1.75;;;24.20;53.50;;;;;;5034985;28;20045;-46
2021/08/18 09:25:18;;;;;;;4.57;1.77;;;23.80;54.10;;;;;;5032677;28;20392;-46
2021/08/18 09:27:47;;;;;;;2.88;2.10;;;23.90;53.20;;;;;;5033686;28;20021;-46
2021/08/18 09:30:21;;;;;;;4.05;1.77;;;23.60;54.00;;;;;;5032989;28;20354;-46
2021/08/18 09:32:47;;;;;;;5.10;1.60;;;23.30;53.30;;;;;;5034300;28;20018;-44
2021/08/18 09:35:14;;;;;;;3.63;1.70;;;23.10;55.20;;;;;;5034061;28;20435;-48
2021/08/18 09:37:42;;;;;;;2.15;1.65;;;23.00;55.70;;;;;;5034579;28;20014;-47
2021/08/18 09:40:22;;;;;;;2.20;1.50;;;23.00;56.00;;;;;;5034398;28;20030;-47
2021/08/18 09:42:48;;;;;;;2.28;1.52;;;23.00;54.30;;;;;;5033547;28;20025;-49
2021/08/18 09:45:23;;;;;;;1.98;1.65;;;23.20;55.20;;;;;;5034012;28;20021;-45
2021/08/18 09:48:00;;;;;;;2.53;1.48;;;24.10;52.80;;;;;;5034252;28;20030;-49
2021/08/18 09:50:31;;;;;;;3.13;1.55;;;24.80;50.60;;;;;;5034273;28;20013;-46
2021/08/18 09:53:06;;;;;;;2.13;1.40;;;25.30;48.40;;;;;;5034155;28;20014;-44
2021/08/18 09:55:31;;;;;;;2.87;1.70;;;25.20;48.00;;;;;;5033273;28;20507;-47
2021/08/18 09:57:57;;;;;;;1.98;1.50;;;24.80;49.40;;;;;;5034087;28;20025;-46
2021/08/18 10:00:22;;;;;;;1.73;1.60;;;24.30;50.80;;;;;;5034007;28;20025;-48
2021/08/18 10:02:48;;;;;;;1.95;1.55;;;23.80;51.70;;;;;;5034000;28;20360;-45
2021/08/18 10:05:14;;;;;;;1.50;1.40;;;23.40;52.90;;;;;;5033717;28;20091;-47
2021/08/18 10:07:40;;;;;;;1.67;1.33;;;23.00;54.20;;;;;;5033897;28;20508;-44
2021/08/18 10:10:06;;;;;;;1.70;1.13;;;22.60;55.20;;;;;;5033713;28;20046;-47
2021/08/18 10:12:32;;;;;;;2.35;1.52;;;22.40;56.10;;;;;;5032909;28;20026;-49
2021/08/18 10:15:02;;;;;;;2.00;1.58;;;22.10;56.80;;;;;;5033664;28;20044;-45
2021/08/18 10:17:38;;;;;;;1.77;1.55;;;22.00;57.60;;;;;;5033767;28;20029;-46
2021/08/18 10:20:05;;;;;;;2.78;1.73;;;22.00;58.20;;;;;;5033409;28;20029;-44
2021/08/18 10:22:31;;;;;;;3.33;1.50;;;21.90;58.90;;;;;;5033691;28;20029;-47
2021/08/18 10:24:56;;;;;;;1.63;1.42;;;21.90;58.50;;;;;;5033491;28;20033;-45
2021/08/18 10:27:48;;;;;;;2.63;1.50;;;21.90;59.00;;;;;;5031491;28;20033;-46
2021/08/18 10:30:25;;;;;;;2.13;1.45;;;22.00;59.10;;;;;;5033425;28;20847;-47
2021/08/18 10:32:52;;;;;;;2.30;1.60;;;22.20;59.00;;;;;;5033524;28;20028;-44
2021/08/18 10:35:41;;;;;;;1.73;1.60;;;22.40;58.20;;;;;;5033231;28;20515;-44
2021/08/18 10:38:26;;;;;;;4.22;1.42;;;22.70;58.00;;;;;;5033200;28;20029;-46
2021/08/18 10:40:52;;;;;;;1.77;1.30;;;22.90;57.60;;;;;;5032446;28;20029;-48
2021/08/18 10:43:56;;;;;;;4.90;1.50;;;23.00;57.80;;;;;;5033164;28;20025;-48
2021/08/18 10:46:22;;;;;;;2.22;1.50;;;23.00;57.30;;;;;;5033048;28;20026;-44
2021/08/18 10:49:01;;;;;;;2.17;1.55;;;22.90;58.10;;;;;;5033207;28;20076;-46
2021/08/18 10:51:39;;;;;;;2.25;1.30;;;22.80;58.40;;;;;;5033101;28;20021;-46
2021/08/18 10:54:29;;;;;;;5.60;2.40;;;22.60;59.10;;;;;;5032979;28;20026;-44
2021/08/18 10:56:58;;;;;;;2.90;1.92;;;22.30;59.00;;;;;;5031939;28;20076;-49
2021/08/18 10:59:35;;;;;;;2.70;1.60;;;22.20;60.00;;;;;;5013106;28;20038;-51
2021/08/18 11:02:02;;;;;;;1.45;1.35;;;22.00;60.10;;;;;;5013077;28;20026;-44
2021/08/18 11:04:49;;;;;;;2.75;1.50;;;22.00;60.60;;;;;;5016974;28;20408;-46
2021/08/18 11:07:16;;;;;;;2.38;1.45;;;22.00;60.90;;;;;;5032684;28;20035;-46
2021/08/18 11:09:58;;;;;;;2.13;1.40;;;22.00;60.80;;;;;;5031890;28;20056;-46
2021/08/18 11:12:39;;;;;;;2.65;1.27;;;22.10;61.80;;;;;;5031724;28;20057;-46
2021/08/18 11:15:20;;;;;;;1.88;1.70;;;22.10;60.90;;;;;;5032591;28;20060;-47
2021/08/18 11:17:51;;;;;;;1.88;1.45;;;22.10;59.40;;;;;;5032709;28;20045;-46
2021/08/18 11:20:22;;;;;;;1.42;1.13;;;22.10;58.80;;;;;;5031381;28;20495;-44
2021/08/18 11:23:01;;;;;;;1.58;1.48;;;22.00;57.90;;;;;;5032541;28;20040;-46
2021/08/18 11:25:29;;;;;;;3.92;1.50;;;22.10;58.00;;;;;;5031688;28;20026;-46
2021/08/18 11:27:56;;;;;;;4.13;1.80;;;22.10;55.50;;;;;;5032358;28;20409;-46
2021/08/18 11:30:30;;;;;;;1.73;1.63;;;22.20;54.70;;;;;;5032244;28;20032;-47
2021/08/18 11:32:56;;;;;;;1.77;1.30;;;22.50;53.80;;;;;;5031898;28;20033;-45
2021/08/18 11:35:33;;;;;;;1.60;1.45;;;22.80;52.50;;;;;;5032120;28;20080;-46
2021/08/18 11:38:07;;;;;;;1.65;1.27;;;23.00;47.40;;;;;;5032040;28;20029;-46
2021/08/18 11:40:34;;;;;;;2.50;1.10;;;23.20;48.80;;;;;;5031252;28;20052;-44
2021/08/18 11:43:00;;;;;;;2.75;1.52;;;23.50;48.70;;;;;;5032123;28;20033;-45
2021/08/18 11:45:27;;;;;;;2.33;1.60;;;23.60;48.00;;;;;;5031954;28;20057;-48
2021/08/18 11:48:09;;;;;;;1.45;1.05;;;23.60;47.80;;;;;;5032011;28;20156;-45
2021/08/18 11:50:36;;;;;;;1.77;1.40;;;23.50;46.40;;;;;;5031939;28;20129;-48
2021/08/18 11:53:04;;;;;;;4.07;1.20;;;23.40;46.90;;;;;;5031998;28;20032;-50
2021/08/18 11:55:31;;;;;;;1.60;1.33;;;23.30;47.60;;;;;;5031018;28;20037;-46
2021/08/18 11:57:57;;;;;;;1.15;1.05;;;23.50;47.80;;;;;;5031970;28;20537;-46
2021/08/18 12:00:23;;;;;;;2.05;1.30;;;23.70;47.80;;;;;;5030462;28;20362;-46
2021/08/18 12:02:49;;;;;;;1.98;1.45;;;23.80;47.40;;;;;;5031654;28;20025;-45
2021/08/18 12:05:15;;;;;;;1.63;1.25;;;23.80;47.10;;;;;;5031463;28;20049;-45
2021/08/18 12:07:42;;;;;;;1.65;1.50;;;23.50;47.30;;;;;;5031757;28;20071;-45
2021/08/18 12:10:26;;;;;;;1.60;1.30;;;23.20;48.00;;;;;;5031717;28;20018;-46
2021/08/18 12:13:12;;;;;;;3.70;1.58;;;22.90;48.50;;;;;;5031333;28;20026;-44
2021/08/18 12:15:49;;;;;;;1.60;1.30;;;22.60;49.60;;;;;;5031805;28;20037;-45
2021/08/18 12:18:33;;;;;;;1.95;1.25;;;22.70;50.10;;;;;;5031506;28;20060;-47
2021/08/18 12:21:16;;;;;;;1.63;1.30;;;23.00;49.80;;;;;;5011802;28;20037;-46
2021/08/18 12:23:43;;;;;;;2.00;1.33;;;23.20;49.20;;;;;;5011642;28;20026;-46
2021/08/18 12:26:33;;;;;;;1.50;1.30;;;23.40;49.00;;;;;;5010393;28;20482;-44
2021/08/18 12:29:00;;;;;;;2.03;1.20;;;23.60;46.80;;;;;;5011658;28;20058;-45
2021/08/18 12:31:47;;;;;;;1.52;1.42;;;23.70;47.70;;;;;;5011718;28;20492;-43
2021/08/18 12:34:12;;;;;;;2.05;1.42;;;23.90;46.10;;;;;;5011461;28;20034;-46
2021/08/18 12:36:38;;;;;;;3.67;1.73;;;23.90;46.00;;;;;;5011350;28;20152;-43
2021/08/18 12:39:04;;;;;;;2.17;1.70;;;23.80;46.10;;;;;;5011661;28;20041;-45
2021/08/18 12:41:33;;;;;;;3.70;1.50;;;23.60;46.00;;;;;;5010610;28;20018;-44
2021/08/18 12:44:11;;;;;;;2.42;1.70;;;23.40;46.20;;;;;;5011521;28;20030;-45
2021/08/18 12:46:40;;;;;;;2.92;1.77;;;23.00;46.00;;;;;;5011325;28;20399;-44
2021/08/18 12:49:28;;;;;;;3.42;1.90;;;22.70;48.00;;;;;;5011457;28;20028;-43